createdAt,value
2018-04-06T00:00:24.000Z,101030
2018-04-06T00:02:24.000Z,101029
2018-04-06T00:03:24.000Z,101030
2018-04-06T00:05:24.000Z,101025
2018-04-06T00:07:24.000Z,101035
2018-04-06T00:08:25.000Z,101033
2018-04-06T00:10:10.000Z,101026
2018-04-06T00:11:25.000Z,101030
2018-04-06T00:12:25.000Z,101025
2018-04-06T00:14:25.000Z,101031
2018-04-06T00:16:25.000Z,101039
2018-04-06T00:18:25.000Z,101044
2018-04-06T00:19:25.000Z,101042
2018-04-06T00:21:25.000Z,101046
2018-04-06T00:23:25.000Z,101043
2018-04-06T00:25:10.000Z,101043
2018-04-06T00:26:25.000Z,101042
2018-04-06T00:27:25.000Z,101038
2018-04-06T00:28:25.000Z,101041
2018-04-06T00:30:25.000Z,101039
2018-04-06T00:32:25.000Z,101033
2018-04-06T00:34:25.000Z,101031
2018-04-06T00:35:25.000Z,101033
2018-04-06T00:36:54.000Z,101028
2018-04-06T00:38:25.000Z,101030
2018-04-06T00:39:25.000Z,101027
2018-04-06T00:41:25.000Z,101030
2018-04-06T00:43:25.000Z,101028
2018-04-06T00:45:25.000Z,101031
2018-04-06T00:47:25.000Z,101023
2018-04-06T00:48:25.000Z,101015
2018-04-06T00:50:25.000Z,101013
2018-04-06T00:51:25.000Z,101011
2018-04-06T00:53:25.000Z,101009
2018-04-06T00:55:25.000Z,101009
2018-04-06T00:57:25.000Z,101007
2018-04-06T00:58:25.000Z,101010
2018-04-06T01:00:25.000Z,101013
2018-04-06T01:02:25.000Z,101017
2018-04-06T01:03:25.000Z,101014
2018-04-06T01:04:25.000Z,101011
2018-04-06T01:06:25.000Z,101011
2018-04-06T01:07:25.000Z,101007
2018-04-06T01:09:25.000Z,101008
2018-04-06T01:10:25.000Z,101010
2018-04-06T01:11:25.000Z,101011
2018-04-06T01:12:25.000Z,101013
2018-04-06T01:14:25.000Z,101014
2018-04-06T01:15:25.000Z,101013
2018-04-06T01:17:10.000Z,101009
2018-04-06T01:18:25.000Z,101010
2018-04-06T01:20:25.000Z,101012
2018-04-06T01:21:25.000Z,101014
2018-04-06T01:23:25.000Z,101011
2018-04-06T01:24:25.000Z,101008
2018-04-06T01:25:25.000Z,101007
2018-04-06T01:27:25.000Z,101006
2018-04-06T01:29:25.000Z,101004
2018-04-06T01:30:25.000Z,101006
2018-04-06T01:32:25.000Z,101009
2018-04-06T01:34:25.000Z,101007
2018-04-06T01:36:25.000Z,101015
2018-04-06T01:37:25.000Z,101010
2018-04-06T01:39:25.000Z,101012
2018-04-06T01:41:25.000Z,101010
2018-04-06T01:43:25.000Z,101011
2018-04-06T01:45:25.000Z,101009
2018-04-06T01:46:25.000Z,101016
2018-04-06T01:48:25.000Z,101012
2018-04-06T01:50:10.000Z,101009
2018-04-06T01:51:25.000Z,101011
2018-04-06T01:53:25.000Z,101010
2018-04-06T01:55:10.000Z,101014
2018-04-06T01:56:25.000Z,101005
2018-04-06T01:57:25.000Z,101007
2018-04-06T01:59:25.000Z,101011
2018-04-06T02:00:25.000Z,101005
2018-04-06T02:02:25.000Z,101008
2018-04-06T02:04:25.000Z,101012
2018-04-06T02:05:25.000Z,101009
2018-04-06T02:06:25.000Z,101008
2018-04-06T02:07:54.000Z,101010
2018-04-06T02:09:25.000Z,101006
2018-04-06T02:11:25.000Z,101009
2018-04-06T02:13:25.000Z,101015
2018-04-06T02:15:25.000Z,101010
2018-04-06T02:16:25.000Z,101014
2018-04-06T02:18:25.000Z,101016
2018-04-06T02:19:25.000Z,101013
2018-04-06T02:20:25.000Z,101010
2018-04-06T02:22:25.000Z,101015
2018-04-06T02:23:25.000Z,101012
2018-04-06T02:24:25.000Z,101005
2018-04-06T02:26:25.000Z,101007
2018-04-06T02:27:25.000Z,101007
2018-04-06T02:29:25.000Z,101003
2018-04-06T02:31:25.000Z,101003
2018-04-06T02:33:25.000Z,101001
2018-04-06T02:35:10.000Z,101007
2018-04-06T02:36:10.000Z,101007
2018-04-06T02:37:25.000Z,101007
2018-04-06T02:39:25.000Z,100999
2018-04-06T02:41:25.000Z,101005
2018-04-06T02:43:25.000Z,100999
2018-04-06T02:45:25.000Z,100998
2018-04-06T02:47:25.000Z,101000
2018-04-06T02:49:10.000Z,100997
2018-04-06T02:50:10.000Z,100997
2018-04-06T02:51:25.000Z,100998
2018-04-06T02:53:25.000Z,101004
2018-04-06T02:54:25.000Z,101002
2018-04-06T02:56:25.000Z,101002
2018-04-06T02:57:25.000Z,100999
2018-04-06T02:58:25.000Z,100988
2018-04-06T03:00:25.000Z,100989
2018-04-06T03:01:25.000Z,100992
2018-04-06T03:02:25.000Z,100993
2018-04-06T03:04:25.000Z,100998
2018-04-06T03:06:25.000Z,100999
2018-04-06T03:07:25.000Z,100998
2018-04-06T03:09:25.000Z,101002
2018-04-06T03:11:25.000Z,101005
2018-04-06T03:12:25.000Z,101003
2018-04-06T03:13:25.000Z,100999
2018-04-06T03:14:25.000Z,100998
2018-04-06T03:16:10.000Z,101002
2018-04-06T03:17:10.000Z,100997
2018-04-06T03:18:25.000Z,101001
2018-04-06T03:20:25.000Z,100994
2018-04-06T03:22:25.000Z,101003
2018-04-06T03:23:25.000Z,101002
2018-04-06T03:24:25.000Z,101002
2018-04-06T03:26:10.000Z,101000
2018-04-06T03:27:25.000Z,101005
2018-04-06T03:28:25.000Z,101001
2018-04-06T03:30:25.000Z,101008
2018-04-06T03:31:25.000Z,101007
2018-04-06T03:33:25.000Z,101000
2018-04-06T03:35:25.000Z,101001
2018-04-06T03:37:25.000Z,100997
2018-04-06T03:38:25.000Z,100992
2018-04-06T03:40:25.000Z,101000
2018-04-06T03:41:25.000Z,100992
2018-04-06T03:43:25.000Z,100989
2018-04-06T03:45:25.000Z,100983
2018-04-06T03:47:25.000Z,100982
2018-04-06T03:49:25.000Z,100985
2018-04-06T03:50:25.000Z,100987
2018-04-06T03:51:25.000Z,100984
2018-04-06T03:53:10.000Z,100986
2018-04-06T03:54:25.000Z,100991
2018-04-06T03:55:25.000Z,100991
2018-04-06T03:57:10.000Z,100997
2018-04-06T03:58:10.000Z,100999
2018-04-06T03:59:25.000Z,100992
2018-04-06T04:00:25.000Z,100995
2018-04-06T04:02:25.000Z,100999
2018-04-06T04:04:25.000Z,100996
2018-04-06T04:06:25.000Z,100996
2018-04-06T04:08:25.000Z,100992
2018-04-06T04:09:25.000Z,101000
2018-04-06T04:11:25.000Z,101002
2018-04-06T04:12:25.000Z,100999
2018-04-06T04:14:25.000Z,100997
2018-04-06T04:16:25.000Z,101001
2018-04-06T04:18:25.000Z,100996
2018-04-06T04:19:25.000Z,100993
2018-04-06T04:21:25.000Z,100991
2018-04-06T04:23:25.000Z,100989
2018-04-06T04:25:25.000Z,100991
2018-04-06T04:26:25.000Z,100978
2018-04-06T04:28:25.000Z,100980
2018-04-06T04:30:25.000Z,100985
2018-04-06T04:32:25.000Z,100983
2018-04-06T04:34:10.000Z,100991
2018-04-06T04:35:25.000Z,100995
2018-04-06T04:37:25.000Z,100994
2018-04-06T04:39:25.000Z,100989
2018-04-06T04:41:10.000Z,100990
2018-04-06T04:42:25.000Z,101002
2018-04-06T04:44:25.000Z,100989
2018-04-06T04:46:25.000Z,100989
2018-04-06T04:48:10.000Z,100988
2018-04-06T04:49:25.000Z,100987
2018-04-06T04:50:25.000Z,100997
2018-04-06T04:52:10.000Z,100999
2018-04-06T04:53:25.000Z,101011
2018-04-06T04:55:25.000Z,101008
2018-04-06T04:57:25.000Z,101012
2018-04-06T04:58:25.000Z,101009
2018-04-06T05:00:25.000Z,101012
2018-04-06T05:01:25.000Z,101014
2018-04-06T05:02:25.000Z,101009
2018-04-06T05:03:25.000Z,101011
2018-04-06T05:05:25.000Z,101006
2018-04-06T05:07:25.000Z,101013
2018-04-06T05:09:25.000Z,101011
2018-04-06T05:10:25.000Z,101014
2018-04-06T05:12:25.000Z,101013
2018-04-06T05:13:25.000Z,101010
2018-04-06T05:14:25.000Z,101012
2018-04-06T05:15:25.000Z,101011
2018-04-06T05:17:25.000Z,101014
2018-04-06T05:19:25.000Z,101010
2018-04-06T05:21:10.000Z,101015
2018-04-06T05:22:25.000Z,101013
2018-04-06T05:24:25.000Z,101023
2018-04-06T05:26:25.000Z,101011
2018-04-06T05:28:25.000Z,101014
2018-04-06T05:30:25.000Z,101009
2018-04-06T05:31:25.000Z,101009
2018-04-06T05:33:25.000Z,101004
2018-04-06T05:35:25.000Z,101000
2018-04-06T05:37:25.000Z,101013
2018-04-06T05:38:25.000Z,101012
2018-04-06T05:40:25.000Z,101011
2018-04-06T05:42:25.000Z,101012
2018-04-06T05:43:25.000Z,101010
2018-04-06T05:44:25.000Z,101005
2018-04-06T05:46:25.000Z,101006
2018-04-06T05:47:25.000Z,101005
2018-04-06T05:49:25.000Z,101005
2018-04-06T05:50:25.000Z,101001
2018-04-06T05:52:25.000Z,101004
2018-04-06T05:53:25.000Z,101011
2018-04-06T05:55:25.000Z,101012
2018-04-06T05:56:25.000Z,101015
2018-04-06T05:58:25.000Z,101015
2018-04-06T06:00:25.000Z,101017
2018-04-06T06:01:25.000Z,101018
2018-04-06T06:03:25.000Z,101010
2018-04-06T06:04:25.000Z,101011
2018-04-06T06:06:25.000Z,101011
2018-04-06T06:07:25.000Z,101009
2018-04-06T06:09:10.000Z,101009
2018-04-06T06:10:25.000Z,101009
2018-04-06T06:12:25.000Z,101014
2018-04-06T06:14:25.000Z,101012
2018-04-06T06:15:25.000Z,101019
2018-04-06T06:17:25.000Z,101015
2018-04-06T06:19:25.000Z,101007
2018-04-06T06:20:25.000Z,101009
2018-04-06T06:21:25.000Z,101001
2018-04-06T06:23:25.000Z,101001
2018-04-06T06:25:25.000Z,101003
2018-04-06T06:26:25.000Z,101003
2018-04-06T06:28:25.000Z,101008
2018-04-06T06:29:25.000Z,101011
2018-04-06T06:31:25.000Z,101010
2018-04-06T06:33:25.000Z,101010
2018-04-06T06:35:25.000Z,101015
2018-04-06T06:36:25.000Z,101018
2018-04-06T06:38:25.000Z,101020
2018-04-06T06:39:25.000Z,101016
2018-04-06T06:41:25.000Z,101015
2018-04-06T06:43:25.000Z,101017
2018-04-06T06:45:25.000Z,101016
2018-04-06T06:46:25.000Z,101016
2018-04-06T06:48:25.000Z,101019
2018-04-06T06:50:25.000Z,101012
2018-04-06T06:52:25.000Z,101006
2018-04-06T06:54:10.000Z,101002
2018-04-06T06:55:25.000Z,101001
2018-04-06T06:57:25.000Z,101002
2018-04-06T06:59:10.000Z,100999
2018-04-06T07:00:25.000Z,100991
2018-04-06T07:02:25.000Z,100993
2018-04-06T07:03:25.000Z,100997
2018-04-06T07:05:25.000Z,100987
2018-04-06T07:06:25.000Z,100987
2018-04-06T07:08:25.000Z,100981
2018-04-06T07:09:25.000Z,100982
2018-04-06T07:11:25.000Z,100971
2018-04-06T07:13:10.000Z,100970
2018-04-06T07:14:25.000Z,100975
2018-04-06T07:16:25.000Z,100975
2018-04-06T07:17:25.000Z,100969
2018-04-06T07:18:25.000Z,100964
2018-04-06T07:20:25.000Z,100952
2018-04-06T07:22:25.000Z,100955
2018-04-06T07:24:25.000Z,100955
2018-04-06T07:26:25.000Z,100949
2018-04-06T07:28:25.000Z,100950
2018-04-06T07:31:34.000Z,100944
2018-04-06T07:33:20.000Z,100938
2018-04-06T07:35:20.000Z,100937
2018-04-06T07:36:20.000Z,100938
2018-04-06T07:38:20.000Z,100933
2018-04-06T07:40:20.000Z,100929
2018-04-06T07:42:20.000Z,100926
2018-04-06T07:44:05.000Z,100922
2018-04-06T07:45:05.000Z,100924
2018-04-06T07:46:20.000Z,100932
2018-04-06T07:48:20.000Z,100924
2018-04-06T07:49:20.000Z,100930
2018-04-06T07:51:20.000Z,100929
2018-04-06T07:52:20.000Z,100925
2018-04-06T07:53:50.000Z,100930
2018-04-06T07:55:20.000Z,100927
2018-04-06T07:56:20.000Z,100932
2018-04-06T07:58:20.000Z,100929
2018-04-06T07:59:20.000Z,100932
2018-04-06T08:01:20.000Z,100935
2018-04-06T08:03:20.000Z,100920
2018-04-06T08:04:20.000Z,100925
2018-04-06T08:06:20.000Z,100923
2018-04-06T08:08:20.000Z,100929
2018-04-06T08:10:20.000Z,100927
2018-04-06T08:11:20.000Z,100931
2018-04-06T08:13:05.000Z,100928
2018-04-06T08:14:20.000Z,100931
2018-04-06T08:15:20.000Z,100923
2018-04-06T08:17:20.000Z,100924
2018-04-06T08:19:20.000Z,100923
2018-04-06T08:21:20.000Z,100922
2018-04-06T08:23:20.000Z,100924
2018-04-06T08:25:20.000Z,100924
2018-04-06T08:26:20.000Z,100924
2018-04-06T08:28:20.000Z,100926
2018-04-06T08:29:20.000Z,100931
2018-04-06T08:30:20.000Z,100926
2018-04-06T08:32:20.000Z,100926
2018-04-06T08:33:20.000Z,100924
2018-04-06T08:35:05.000Z,100927
2018-04-06T08:36:20.000Z,100931
2018-04-06T08:38:20.000Z,100932
2018-04-06T08:40:20.000Z,100924
2018-04-06T08:42:20.000Z,100929
2018-04-06T08:44:20.000Z,100933
2018-04-06T08:45:20.000Z,100933
2018-04-06T08:46:20.000Z,100939
2018-04-06T08:47:20.000Z,100928
2018-04-06T08:49:20.000Z,100926
2018-04-06T08:51:20.000Z,100917
2018-04-06T08:52:20.000Z,100919
2018-04-06T08:53:20.000Z,100915
2018-04-06T08:55:20.000Z,100917
2018-04-06T08:57:20.000Z,100911
2018-04-06T08:59:20.000Z,100913
2018-04-06T09:01:20.000Z,100915
2018-04-06T09:03:20.000Z,100912
2018-04-06T09:04:20.000Z,100906
2018-04-06T09:06:05.000Z,100894
2018-04-06T09:07:20.000Z,100898
2018-04-06T09:09:20.000Z,100894
2018-04-06T09:11:05.000Z,100894
2018-04-06T09:12:20.000Z,100897
2018-04-06T09:14:20.000Z,100893
2018-04-06T09:16:20.000Z,100905
2018-04-06T09:18:20.000Z,100897
2018-04-06T09:20:20.000Z,100896
2018-04-06T09:22:20.000Z,100890
2018-04-06T09:24:20.000Z,100891
2018-04-06T09:26:20.000Z,100896
2018-04-06T09:28:20.000Z,100890
2018-04-06T09:30:20.000Z,100890
2018-04-06T09:31:20.000Z,100889
2018-04-06T09:32:20.000Z,100891
2018-04-06T09:34:20.000Z,100882
2018-04-06T09:36:20.000Z,100878
2018-04-06T09:37:20.000Z,100874
2018-04-06T09:39:20.000Z,100871
2018-04-06T09:40:49.000Z,100869
2018-04-06T09:42:20.000Z,100864
2018-04-06T09:44:20.000Z,100868
2018-04-06T09:46:20.000Z,100874
2018-04-06T09:47:20.000Z,100862
2018-04-06T09:48:20.000Z,100866
2018-04-06T09:50:20.000Z,100853
2018-04-06T09:52:20.000Z,100836
2018-04-06T09:53:20.000Z,100841
2018-04-06T09:54:20.000Z,100830
2018-04-06T09:55:20.000Z,100836
2018-04-06T09:57:20.000Z,100829
2018-04-06T09:59:05.000Z,100837
2018-04-06T10:00:20.000Z,100838
2018-04-06T10:01:20.000Z,100838
2018-04-06T10:03:20.000Z,100831
2018-04-06T10:04:20.000Z,100832
2018-04-06T10:06:05.000Z,100830
2018-04-06T10:07:20.000Z,100820
2018-04-06T10:09:05.000Z,100824
2018-04-06T10:10:20.000Z,100821
2018-04-06T10:11:20.000Z,100827
2018-04-06T10:12:20.000Z,100823
2018-04-06T10:14:20.000Z,100828
2018-04-06T10:15:20.000Z,100832
2018-04-06T10:17:20.000Z,100827
2018-04-06T10:19:20.000Z,100823
2018-04-06T10:21:05.000Z,100820
2018-04-06T10:22:20.000Z,100819
2018-04-06T10:23:20.000Z,100820
2018-04-06T10:25:20.000Z,100813
2018-04-06T10:26:20.000Z,100807
2018-04-06T10:27:20.000Z,100811
2018-04-06T10:29:20.000Z,100812
2018-04-06T10:31:20.000Z,100810
2018-04-06T10:32:20.000Z,100811
2018-04-06T10:33:20.000Z,100812
2018-04-06T10:35:20.000Z,100814
2018-04-06T10:37:05.000Z,100801
2018-04-06T10:38:20.000Z,100798
2018-04-06T10:40:20.000Z,100797
2018-04-06T10:42:20.000Z,100798
2018-04-06T10:44:21.000Z,100786
2018-04-06T10:46:21.000Z,100791
2018-04-06T10:47:21.000Z,100789
2018-04-06T10:49:21.000Z,100789
2018-04-06T10:51:21.000Z,100784
2018-04-06T10:53:21.000Z,100778
2018-04-06T10:54:21.000Z,100779
2018-04-06T10:56:21.000Z,100782
2018-04-06T10:58:21.000Z,100775
2018-04-06T11:00:21.000Z,100775
2018-04-06T11:02:21.000Z,100777
2018-04-06T11:04:21.000Z,100775
2018-04-06T11:05:21.000Z,100771
2018-04-06T11:06:21.000Z,100771
2018-04-06T11:08:21.000Z,100769
2018-04-06T11:10:21.000Z,100759
2018-04-06T11:12:21.000Z,100765
2018-04-06T11:14:21.000Z,100753
2018-04-06T11:16:05.000Z,100753
2018-04-06T11:17:21.000Z,100752
2018-04-06T11:19:21.000Z,100754
2018-04-06T11:21:21.000Z,100742
2018-04-06T11:23:21.000Z,100752
2018-04-06T11:25:21.000Z,100748
2018-04-06T11:27:21.000Z,100736
2018-04-06T11:28:21.000Z,100736
2018-04-06T11:30:21.000Z,100719
2018-04-06T11:32:21.000Z,100717
2018-04-06T11:34:21.000Z,100714
2018-04-06T11:36:21.000Z,100728
2018-04-06T11:38:21.000Z,100730
2018-04-06T11:40:21.000Z,100719
2018-04-06T11:42:21.000Z,100720
2018-04-06T11:44:21.000Z,100715
2018-04-06T11:46:21.000Z,100719
2018-04-06T11:48:20.000Z,100721
2018-04-06T11:50:05.000Z,100720
2018-04-06T11:51:20.000Z,100719
2018-04-06T11:53:20.000Z,100717
2018-04-06T11:55:05.000Z,100714
2018-04-06T11:56:20.000Z,100706
2018-04-06T11:58:20.000Z,100701
2018-04-06T11:59:20.000Z,100704
2018-04-06T12:01:20.000Z,100696
2018-04-06T12:02:20.000Z,100706
2018-04-06T12:04:20.000Z,100698
2018-04-06T12:06:20.000Z,100700
2018-04-06T12:07:20.000Z,100692
2018-04-06T12:09:05.000Z,100692
2018-04-06T12:10:20.000Z,100687
2018-04-06T12:12:20.000Z,100687
2018-04-06T12:14:05.000Z,100678
2018-04-06T12:15:05.000Z,100676
2018-04-06T12:16:20.000Z,100676
2018-04-06T12:18:20.000Z,100673
2018-04-06T12:20:20.000Z,100668
2018-04-06T12:21:20.000Z,100669
2018-04-06T12:23:20.000Z,100666
2018-04-06T12:24:20.000Z,100659
2018-04-06T12:26:20.000Z,100655
2018-04-06T12:28:20.000Z,100645
2018-04-06T12:30:05.000Z,100648
2018-04-06T12:31:20.000Z,100650
2018-04-06T12:32:20.000Z,100650
2018-04-06T12:34:20.000Z,100647
2018-04-06T12:35:20.000Z,100645
2018-04-06T12:37:20.000Z,100631
2018-04-06T12:38:20.000Z,100629
2018-04-06T12:40:20.000Z,100631
2018-04-06T12:41:20.000Z,100628
2018-04-06T12:43:20.000Z,100632
2018-04-06T12:45:05.000Z,100628
2018-04-06T12:46:20.000Z,100622
2018-04-06T12:47:20.000Z,100624
2018-04-06T12:49:20.000Z,100621
2018-04-06T12:50:50.000Z,100617
2018-04-06T12:52:21.000Z,100612
2018-04-06T12:53:21.000Z,100600
2018-04-06T12:55:21.000Z,100592
2018-04-06T12:56:21.000Z,100594
2018-04-06T12:58:05.000Z,100598
2018-04-06T12:59:21.000Z,100601
2018-04-06T13:01:21.000Z,100601
2018-04-06T13:03:21.000Z,100592
2018-04-06T13:04:21.000Z,100592
2018-04-06T13:06:21.000Z,100587
2018-04-06T13:07:21.000Z,100584
2018-04-06T13:09:21.000Z,100583
2018-04-06T13:10:21.000Z,100576
2018-04-06T13:11:21.000Z,100576
2018-04-06T13:13:21.000Z,100576
2018-04-06T13:15:21.000Z,100576
2018-04-06T13:17:21.000Z,100575
2018-04-06T13:18:21.000Z,100564
2018-04-06T13:20:21.000Z,100567
2018-04-06T13:21:21.000Z,100557
2018-04-06T13:23:21.000Z,100558
2018-04-06T13:24:21.000Z,100558
2018-04-06T13:26:05.000Z,100551
2018-04-06T13:27:21.000Z,100563
2018-04-06T13:29:05.000Z,100551
2018-04-06T13:30:21.000Z,100546
2018-04-06T13:31:21.000Z,100541
2018-04-06T13:33:21.000Z,100540
2018-04-06T13:34:21.000Z,100541
2018-04-06T13:35:21.000Z,100544
2018-04-06T13:36:21.000Z,100536
2018-04-06T13:38:21.000Z,100528
2018-04-06T13:40:21.000Z,100526
2018-04-06T13:41:21.000Z,100523
2018-04-06T13:43:05.000Z,100510
2018-04-06T13:44:21.000Z,100515
2018-04-06T13:46:21.000Z,100497
2018-04-06T13:48:05.000Z,100496
2018-04-06T13:49:21.000Z,100496
2018-04-06T13:50:21.000Z,100502
2018-04-06T13:51:21.000Z,100501
2018-04-06T13:53:21.000Z,100497
2018-04-06T13:55:20.000Z,100488
2018-04-06T13:57:20.000Z,100485
2018-04-06T13:58:20.000Z,100484
2018-04-06T14:00:20.000Z,100478
2018-04-06T14:02:05.000Z,100477
2018-04-06T14:03:20.000Z,100492
2018-04-06T14:05:20.000Z,100474
2018-04-06T14:06:20.000Z,100468
2018-04-06T14:08:20.000Z,100457
2018-04-06T14:09:20.000Z,100455
2018-04-06T14:11:05.000Z,100447
2018-04-06T14:12:20.000Z,100442
2018-04-06T14:14:20.000Z,100438
2018-04-06T14:15:20.000Z,100446
2018-04-06T14:17:20.000Z,100437
2018-04-06T14:19:20.000Z,100442
2018-04-06T14:21:05.000Z,100429
2018-04-06T14:22:05.000Z,100432
2018-04-06T14:23:20.000Z,100433
2018-04-06T14:24:20.000Z,100435
2018-04-06T14:26:05.000Z,100435
2018-04-06T14:27:20.000Z,100439
2018-04-06T14:28:20.000Z,100442
2018-04-06T14:29:20.000Z,100440
2018-04-06T14:31:20.000Z,100439
2018-04-06T14:33:20.000Z,100433
2018-04-06T14:34:20.000Z,100431
2018-04-06T14:36:20.000Z,100428
2018-04-06T14:38:20.000Z,100422
2018-04-06T14:40:20.000Z,100432
2018-04-06T14:42:20.000Z,100438
2018-04-06T14:44:05.000Z,100421
2018-04-06T14:45:20.000Z,100417
2018-04-06T14:47:20.000Z,100415
2018-04-06T14:48:20.000Z,100416
2018-04-06T14:50:20.000Z,100406
2018-04-06T14:52:20.000Z,100406
2018-04-06T14:54:20.000Z,100397
2018-04-06T14:55:20.000Z,100403
2018-04-06T14:57:20.000Z,100400
2018-04-06T14:59:21.000Z,100402
2018-04-06T15:01:21.000Z,100393
2018-04-06T15:03:21.000Z,100388
2018-04-06T15:05:21.000Z,100385
2018-04-06T15:06:21.000Z,100394
2018-04-06T15:07:21.000Z,100391
2018-04-06T15:09:21.000Z,100385
2018-04-06T15:11:21.000Z,100386
2018-04-06T15:12:21.000Z,100382
2018-04-06T15:14:21.000Z,100376
2018-04-06T15:15:21.000Z,100374
2018-04-06T15:16:21.000Z,100376
2018-04-06T15:18:05.000Z,100376
2018-04-06T15:19:21.000Z,100381
2018-04-06T15:20:21.000Z,100380
2018-04-06T15:22:21.000Z,100368
2018-04-06T15:24:21.000Z,100365
2018-04-06T15:26:21.000Z,100365
2018-04-06T15:28:21.000Z,100370
2018-04-06T15:29:21.000Z,100369
2018-04-06T15:31:05.000Z,100368
2018-04-06T15:32:21.000Z,100367
2018-04-06T15:33:21.000Z,100377
2018-04-06T15:35:21.000Z,100366
2018-04-06T15:37:21.000Z,100363
2018-04-06T15:39:21.000Z,100360
2018-04-06T15:41:21.000Z,100359
2018-04-06T15:42:21.000Z,100365
2018-04-06T15:44:21.000Z,100353
2018-04-06T15:46:21.000Z,100347
2018-04-06T15:48:05.000Z,100341
2018-04-06T15:49:21.000Z,100340
2018-04-06T15:50:21.000Z,100341
2018-04-06T15:52:21.000Z,100338
2018-04-06T15:53:21.000Z,100336
2018-04-06T15:55:21.000Z,100334
2018-04-06T15:57:21.000Z,100336
2018-04-06T15:59:21.000Z,100333
2018-04-06T16:00:21.000Z,100336
2018-04-06T16:02:20.000Z,100331
2018-04-06T16:04:20.000Z,100333
2018-04-06T16:06:20.000Z,100327
2018-04-06T16:08:20.000Z,100327
2018-04-06T16:10:20.000Z,100316
2018-04-06T16:12:20.000Z,100321
2018-04-06T16:13:20.000Z,100316
2018-04-06T16:15:20.000Z,100317
2018-04-06T16:17:20.000Z,100314
2018-04-06T16:19:20.000Z,100314
2018-04-06T16:21:20.000Z,100310
2018-04-06T16:23:20.000Z,100311
2018-04-06T16:24:20.000Z,100315
2018-04-06T16:26:20.000Z,100319
2018-04-06T16:27:20.000Z,100317
2018-04-06T16:28:20.000Z,100312
2018-04-06T16:30:20.000Z,100323
2018-04-06T16:32:20.000Z,100319
2018-04-06T16:33:20.000Z,100321
2018-04-06T16:35:20.000Z,100310
2018-04-06T16:37:20.000Z,100313
2018-04-06T16:39:05.000Z,100312
2018-04-06T16:40:20.000Z,100311
2018-04-06T16:41:20.000Z,100309
2018-04-06T16:43:20.000Z,100312
2018-04-06T16:45:20.000Z,100317
2018-04-06T16:47:20.000Z,100312
2018-04-06T16:48:20.000Z,100311
2018-04-06T16:50:20.000Z,100310
2018-04-06T16:51:20.000Z,100311
2018-04-06T16:53:20.000Z,100312
2018-04-06T16:55:20.000Z,100313
2018-04-06T16:57:20.000Z,100311
2018-04-06T16:59:05.000Z,100309
2018-04-06T17:00:20.000Z,100310
2018-04-06T17:02:20.000Z,100308
2018-04-06T17:04:20.000Z,100315
2018-04-06T17:06:20.000Z,100317
2018-04-06T17:08:20.000Z,100320
2018-04-06T17:10:05.000Z,100317
2018-04-06T17:11:20.000Z,100315
2018-04-06T17:12:20.000Z,100311
2018-04-06T17:14:20.000Z,100311
2018-04-06T17:15:20.000Z,100310
2018-04-06T17:17:20.000Z,100313
2018-04-06T17:18:20.000Z,100306
2018-04-06T17:20:20.000Z,100309
2018-04-06T17:21:20.000Z,100309
2018-04-06T17:23:20.000Z,100309
2018-04-06T17:25:05.000Z,100308
2018-04-06T17:26:20.000Z,100308
2018-04-06T17:27:20.000Z,100314
2018-04-06T17:29:05.000Z,100316
2018-04-06T17:30:20.000Z,100311
2018-04-06T17:32:20.000Z,100318
2018-04-06T17:34:20.000Z,100311
2018-04-06T17:35:20.000Z,100309
2018-04-06T17:36:20.000Z,100310
2018-04-06T17:38:20.000Z,100318
2018-04-06T17:40:20.000Z,100318
2018-04-06T17:41:20.000Z,100320
2018-04-06T17:43:20.000Z,100323
2018-04-06T17:45:20.000Z,100319
2018-04-06T17:46:20.000Z,100319
2018-04-06T17:48:20.000Z,100324
2018-04-06T17:49:20.000Z,100325
2018-04-06T17:51:05.000Z,100320
2018-04-06T17:52:20.000Z,100318
2018-04-06T17:54:20.000Z,100319
2018-04-06T17:56:20.000Z,100318
2018-04-06T17:57:20.000Z,100316
2018-04-06T17:59:05.000Z,100319
2018-04-06T18:00:20.000Z,100324
2018-04-06T18:02:05.000Z,100319
2018-04-06T18:03:20.000Z,100325
2018-04-06T18:05:20.000Z,100322
2018-04-06T18:06:50.000Z,100325
2018-04-06T18:08:20.000Z,100320
2018-04-06T18:09:20.000Z,100322
2018-04-06T18:11:21.000Z,100322
2018-04-06T18:12:21.000Z,100325
2018-04-06T18:14:21.000Z,100328
2018-04-06T18:16:21.000Z,100327
2018-04-06T18:18:21.000Z,100331
2018-04-06T18:20:21.000Z,100327
2018-04-06T18:22:21.000Z,100331
2018-04-06T18:24:21.000Z,100332
2018-04-06T18:26:21.000Z,100326
2018-04-06T18:28:21.000Z,100331
2018-04-06T18:30:21.000Z,100328
2018-04-06T18:32:21.000Z,100327
2018-04-06T18:34:21.000Z,100331
2018-04-06T18:36:05.000Z,100333
2018-04-06T18:37:21.000Z,100327
2018-04-06T18:39:21.000Z,100327
2018-04-06T18:41:21.000Z,100328
2018-04-06T18:43:21.000Z,100327
2018-04-06T18:45:21.000Z,100330
2018-04-06T18:47:21.000Z,100326
2018-04-06T18:48:21.000Z,100323
2018-04-06T18:50:21.000Z,100321
2018-04-06T18:52:05.000Z,100318
2018-04-06T18:53:21.000Z,100328
2018-04-06T18:54:21.000Z,100319
2018-04-06T18:56:21.000Z,100322
2018-04-06T18:57:21.000Z,100324
2018-04-06T18:59:05.000Z,100323
2018-04-06T19:00:21.000Z,100321
2018-04-06T19:01:50.000Z,100313
2018-04-06T19:03:21.000Z,100317
2018-04-06T19:05:21.000Z,100317
2018-04-06T19:07:21.000Z,100311
2018-04-06T19:09:21.000Z,100311
2018-04-06T19:10:21.000Z,100308
2018-04-06T19:12:21.000Z,100312
2018-04-06T19:14:20.000Z,100313
2018-04-06T19:16:20.000Z,100309
2018-04-06T19:18:05.000Z,100308
2018-04-06T19:19:20.000Z,100309
2018-04-06T19:20:20.000Z,100301
2018-04-06T19:21:20.000Z,100306
2018-04-06T19:23:20.000Z,100303
2018-04-06T19:24:20.000Z,100300
2018-04-06T19:25:20.000Z,100300
2018-04-06T19:27:20.000Z,100298
2018-04-06T19:29:20.000Z,100294
2018-04-06T19:31:05.000Z,100295
2018-04-06T19:32:20.000Z,100285
2018-04-06T19:33:20.000Z,100285
2018-04-06T19:34:20.000Z,100278
2018-04-06T19:36:20.000Z,100283
2018-04-06T19:38:20.000Z,100276
2018-04-06T19:40:20.000Z,100271
2018-04-06T19:41:20.000Z,100270
2018-04-06T19:43:20.000Z,100264
2018-04-06T19:45:20.000Z,100259
2018-04-06T19:46:20.000Z,100257
2018-04-06T19:48:20.000Z,100257
2018-04-06T19:50:20.000Z,100249
2018-04-06T19:51:20.000Z,100255
2018-04-06T19:53:20.000Z,100249
2018-04-06T19:54:20.000Z,100251
2018-04-06T19:56:20.000Z,100250
2018-04-06T19:58:20.000Z,100251
2018-04-06T20:00:20.000Z,100253
2018-04-06T20:02:20.000Z,100251
2018-04-06T20:04:05.000Z,100248
2018-04-06T20:05:20.000Z,100250